Schoolfield, Virginia
Current Conditions -  °F | °C
As of 1:53 AM on Friday 31 Oct 2014 (Local Time) from KDAN Reporting Station
Scattered Clouds Scattered Clouds  
Wind Chill: 42°   Ceiling: Unl
Heat Index: 44°   Visibility: 10mi
Dew Point: 36°   Wind: 5mph
Humidity: 73%   Direction: 40°NE
Pressure: 30.02"   Gusts: NA
Location:  36.5958°N, 79.5402°W
Report Text: KDAN 310553Z AUTO 04004KT 10SM SCT065 07/02 A3002 RMK AO2 SLP159 T00670022 10106 20067 58002
Loading
Personal Weather Stations






























Interactive Weather Map
Tropical Storm Tracking
New forecast layout! Learn more

10-Day Weather Forecast

Advertisements
Track Severe Weather on mobile